Time;durP1;ratioP1;P1;durP2;ratioP2;P2;SDS_P1;SDS_P2;PMS_P1;PMS_P2;Temp;Humidity;BMP_temperature;BMP_pressure;BME280_temperature;BME280_humidity;BME280_pressure;Samples;Min_cycle;Max_cycle;Signal;HPM_P1;HPM_P2
2023/08/29 00:01:53;;;;;;;1.75;1.02;;;;;;;15.24;100.00;100711.56;5076129;28;22008;-46
2023/08/29 00:04:19;;;;;;;1.95;0.80;;;;;;;15.19;100.00;100714.88;5054217;28;20042;-48
2023/08/29 00:06:44;;;;;;;2.15;0.77;;;;;;;15.15;100.00;100716.31;5051791;28;20426;-48
2023/08/29 00:09:09;;;;;;;2.92;1.27;;;;;;;15.21;100.00;100714.66;5057172;28;20037;-50
2023/08/29 00:11:35;;;;;;;2.20;0.70;;;;;;;15.26;100.00;100717.50;5058774;28;20105;-48
2023/08/29 00:14:00;;;;;;;3.00;0.88;;;;;;;15.25;100.00;100723.88;5058198;28;20056;-50
2023/08/29 00:16:26;;;;;;;2.45;0.82;;;;;;;15.27;100.00;100716.47;5052528;28;20025;-46
2023/08/29 00:18:51;;;;;;;2.33;1.05;;;;;;;15.27;100.00;100719.13;5049823;28;20464;-50
2023/08/29 00:21:16;;;;;;;1.15;0.70;;;;;;;15.39;100.00;100716.59;5055210;28;20460;-51
2023/08/29 00:23:42;;;;;;;0.50;0.38;;;;;;;15.34;100.00;100717.25;5055122;28;20039;-47
2023/08/29 00:26:07;;;;;;;3.55;0.80;;;;;;;15.24;100.00;100716.91;5060292;28;20036;-48
2023/08/29 00:28:32;;;;;;;0.90;0.88;;;;;;;15.23;100.00;100716.09;5050181;28;20029;-46
2023/08/29 00:30:58;;;;;;;0.80;0.80;;;;;;;15.25;100.00;100711.31;5055837;28;20246;-45
2023/08/29 00:33:23;;;;;;;2.85;0.45;;;;;;;15.26;100.00;100712.16;5050434;28;20025;-49
2023/08/29 00:35:48;;;;;;;0.80;0.55;;;;;;;15.27;100.00;100706.59;5051674;28;20028;-45
2023/08/29 00:38:14;;;;;;;2.88;0.90;;;;;;;15.26;100.00;100706.81;5052283;28;20702;-47
2023/08/29 00:40:39;;;;;;;1.25;0.55;;;;;;;15.23;100.00;100704.56;5053914;28;20028;-51
2023/08/29 00:43:05;;;;;;;1.25;0.30;;;;;;;15.29;100.00;100702.91;5050623;28;20032;-45
2023/08/29 00:45:34;;;;;;;2.50;0.80;;;;;;;15.27;100.00;100698.59;5051335;28;20484;-49
2023/08/29 00:48:01;;;;;;;1.05;0.73;;;;;;;15.30;100.00;100694.66;5052603;28;20103;-45
2023/08/29 00:50:27;;;;;;;1.08;0.52;;;;;;;15.27;100.00;100695.91;5055079;28;20037;-49
2023/08/29 00:52:57;;;;;;;1.92;0.35;;;;;;;15.34;100.00;100690.53;5062475;28;20032;-48
2023/08/29 00:55:22;;;;;;;1.65;0.20;;;;;;;15.38;100.00;100686.38;5048893;28;20075;-46
2023/08/29 00:57:48;;;;;;;3.38;0.57;;;;;;;15.27;100.00;100687.91;5054910;28;20501;-47
2023/08/29 01:00:14;;;;;;;0.75;0.57;;;;;;;15.19;100.00;100685.50;5061169;28;20028;-49
2023/08/29 01:02:39;;;;;;;1.00;0.30;;;;;;;15.16;100.00;100682.44;5053655;28;20040;-48
2023/08/29 01:05:05;;;;;;;1.65;0.65;;;;;;;15.09;100.00;100687.00;5056377;28;20032;-50
2023/08/29 01:07:30;;;;;;;0.82;0.30;;;;;;;15.07;100.00;100679.19;5048559;28;20555;-47
2023/08/29 01:09:56;;;;;;;0.95;0.28;;;;;;;15.10;100.00;100681.47;5052249;28;20028;-48
2023/08/29 01:12:29;;;;;;;2.53;0.40;;;;;;;15.00;100.00;100678.44;5050023;28;20472;-50
2023/08/29 01:15:03;;;;;;;2.42;0.57;;;;;;;15.02;100.00;100674.53;5056955;28;20028;-49
2023/08/29 01:17:34;;;;;;;1.88;0.20;;;;;;;15.04;100.00;100675.13;5054647;28;20035;-49
2023/08/29 01:20:01;;;;;;;3.25;1.05;;;;;;;15.05;100.00;100671.44;5060557;28;20042;-50
2023/08/29 01:22:36;;;;;;;3.85;0.15;;;;;;;15.05;100.00;100670.63;5064133;28;20036;-47
2023/08/29 01:25:39;;;;;;;1.90;0.30;;;;;;;15.20;100.00;100672.94;5048687;28;20033;-50
2023/08/29 01:28:06;;;;;;;0.63;0.22;;;;;;;15.18;100.00;100667.00;5050301;28;20431;-50
2023/08/29 01:30:32;;;;;;;1.60;0.63;;;;;;;15.07;100.00;100667.72;5051215;28;20045;-46
2023/08/29 01:32:59;;;;;;;1.13;0.93;;;;;;;15.15;100.00;100670.13;5058844;28;20021;-45
2023/08/29 01:35:24;;;;;;;1.50;0.88;;;;;;;15.17;100.00;100673.38;5052859;28;20044;-44
2023/08/29 01:37:50;;;;;;;1.45;0.98;;;;;;;15.13;100.00;100666.88;5059509;28;20390;-47
2023/08/29 01:40:15;;;;;;;0.20;0.20;;;;;;;15.12;100.00;100666.03;5053993;28;20033;-48
2023/08/29 01:42:40;;;;;;;0.82;0.13;;;;;;;15.05;100.00;100667.94;5048723;28;20178;-47
2023/08/29 01:45:06;;;;;;;0.77;0.55;;;;;;;15.02;100.00;100668.34;5050660;28;20037;-48
2023/08/29 01:47:32;;;;;;;0.80;0.22;;;;;;;15.05;100.00;100658.06;5056947;28;20039;-48
2023/08/29 01:49:59;;;;;;;4.32;0.65;;;;;;;15.08;100.00;100661.34;5053471;28;20060;-48
2023/08/29 01:52:25;;;;;;;5.72;0.85;;;;;;;15.09;100.00;100665.66;5043115;28;20033;-48
2023/08/29 01:54:50;;;;;;;0.50;0.35;;;;;;;15.09;100.00;100654.97;5049117;28;20043;-49
2023/08/29 01:57:19;;;;;;;0.63;0.28;;;;;;;15.11;100.00;100664.41;5048039;28;20043;-49
2023/08/29 01:59:45;;;;;;;0.57;0.15;;;;;;;15.08;100.00;100662.16;5054995;28;20576;-47
2023/08/29 02:02:13;;;;;;;1.05;0.20;;;;;;;15.03;100.00;100662.81;5053461;28;20047;-47
2023/08/29 02:04:38;;;;;;;1.77;0.40;;;;;;;15.00;100.00;100660.56;5049261;28;20052;-49
2023/08/29 02:07:04;;;;;;;2.92;1.08;;;;;;;15.00;100.00;100663.25;5052245;28;20044;-49
2023/08/29 02:09:31;;;;;;;1.25;0.50;;;;;;;15.02;100.00;100661.19;5048719;28;20083;-48
2023/08/29 02:11:56;;;;;;;1.52;0.30;;;;;;;15.01;100.00;100664.88;5053534;28;20028;-47
2023/08/29 02:14:21;;;;;;;1.27;0.22;;;;;;;14.97;100.00;100657.50;5052584;28;20033;-46
2023/08/29 02:16:47;;;;;;;0.88;0.30;;;;;;;14.95;100.00;100657.72;5056384;28;20377;-48
2023/08/29 02:19:12;;;;;;;0.55;0.52;;;;;;;15.02;100.00;100661.19;5054109;28;20757;-46
2023/08/29 02:21:37;;;;;;;3.10;0.73;;;;;;;15.04;100.00;100659.09;5054379;28;20495;-45
2023/08/29 02:24:03;;;;;;;2.50;0.25;;;;;;;15.08;100.00;100664.03;5052654;28;20510;-47
2023/08/29 02:26:28;;;;;;;0.77;0.60;;;;;;;15.05;100.00;100660.75;5054940;28;20029;-45
2023/08/29 02:28:53;;;;;;;0.93;0.28;;;;;;;15.03;100.00;100665.47;5056054;28;20401;-47
2023/08/29 02:31:20;;;;;;;0.45;0.20;;;;;;;15.02;100.00;100666.53;5052923;28;20049;-46
2023/08/29 02:33:46;;;;;;;2.50;0.10;;;;;;;14.96;100.00;100666.56;5060806;28;20465;-47
2023/08/29 02:36:12;;;;;;;1.65;0.05;;;;;;;14.92;100.00;100668.84;5052242;28;20036;-50
2023/08/29 02:38:38;;;;;;;2.33;0.60;;;;;;;14.90;100.00;100683.44;5049250;28;21179;-44
2023/08/29 02:41:05;;;;;;;0.38;0.38;;;;;;;14.88;100.00;100675.63;5055473;28;20028;-49
2023/08/29 02:43:30;;;;;;;1.30;0.38;;;;;;;14.92;100.00;100676.84;5057735;28;20025;-47
2023/08/29 02:45:57;;;;;;;2.20;0.50;;;;;;;15.00;100.00;100683.78;5055410;28;20063;-46
2023/08/29 02:48:23;;;;;;;1.05;0.45;;;;;;;15.05;100.00;100675.97;5058959;28;20508;-46
2023/08/29 02:50:49;;;;;;;1.70;0.38;;;;;;;14.97;100.00;100684.19;5052530;28;20436;-48
2023/08/29 02:53:19;;;;;;;1.90;0.63;;;;;;;14.80;100.00;100695.38;5055076;28;20025;-45
2023/08/29 02:55:44;;;;;;;1.27;0.40;;;;;;;14.88;100.00;100693.50;5056635;28;20624;-45
2023/08/29 02:58:10;;;;;;;0.22;0.13;;;;;;;14.84;100.00;100709.13;5051674;28;20044;-46
2023/08/29 03:00:35;;;;;;;1.73;0.50;;;;;;;14.89;100.00;100722.63;5053980;28;20089;-50
2023/08/29 03:03:03;;;;;;;2.30;0.40;;;;;;;14.92;100.00;100730.25;5051376;28;20078;-46
2023/08/29 03:05:28;;;;;;;0.90;0.30;;;;;;;14.91;100.00;100728.59;5047152;28;20021;-49
2023/08/29 03:07:55;;;;;;;3.85;0.40;;;;;;;14.89;100.00;100719.16;5051819;28;20485;-46
2023/08/29 03:10:20;;;;;;;0.68;0.40;;;;;;;14.83;100.00;100718.97;5047641;28;20041;-44
2023/08/29 03:12:45;;;;;;;3.30;0.82;;;;;;;14.85;100.00;100718.78;5047198;28;20040;-45
2023/08/29 03:15:11;;;;;;;0.38;0.17;;;;;;;14.84;100.00;100717.13;5061290;28;20127;-47
2023/08/29 03:17:36;;;;;;;0.35;0.35;;;;;;;14.86;100.00;100712.41;5054476;28;20104;-44
2023/08/29 03:20:01;;;;;;;1.92;0.15;;;;;;;14.86;100.00;100712.41;5059666;28;20029;-47
2023/08/29 03:22:27;;;;;;;3.03;0.82;;;;;;;14.75;100.00;100707.75;5052887;28;20397;-44
2023/08/29 03:24:52;;;;;;;0.77;0.15;;;;;;;14.72;100.00;100711.66;5055165;28;20111;-48
2023/08/29 03:27:17;;;;;;;0.30;0.25;;;;;;;14.68;100.00;100706.94;5053826;28;20111;-44
2023/08/29 03:29:43;;;;;;;0.93;0.73;;;;;;;14.65;100.00;100710.03;5057247;28;20536;-47
2023/08/29 03:32:08;;;;;;;1.98;0.30;;;;;;;14.59;100.00;100717.88;5053487;28;20055;-44
2023/08/29 03:34:33;;;;;;;2.72;0.10;;;;;;;14.64;100.00;100716.41;5051330;28;20037;-49
2023/08/29 03:36:59;;;;;;;5.10;1.52;;;;;;;14.69;100.00;100719.25;5059864;28;20057;-46
2023/08/29 03:39:24;;;;;;;0.73;0.35;;;;;;;14.65;100.00;100726.06;5054039;28;20040;-49
2023/08/29 03:41:50;;;;;;;3.63;0.80;;;;;;;14.62;100.00;100729.97;5058688;28;20036;-47
2023/08/29 03:44:15;;;;;;;3.00;0.38;;;;;;;14.50;100.00;100731.63;5059238;28;20147;-46
2023/08/29 03:46:40;;;;;;;1.30;0.30;;;;;;;14.53;100.00;100726.72;5048743;28;20045;-43
2023/08/29 03:49:06;;;;;;;1.05;0.17;;;;;;;14.53;100.00;100726.72;5054656;28;20028;-43
2023/08/29 03:51:31;;;;;;;0.30;0.20;;;;;;;14.45;100.00;100718.09;5054916;28;20528;-48
2023/08/29 03:53:56;;;;;;;1.08;0.20;;;;;;;14.44;100.00;100737.81;5057662;28;20028;-47
2023/08/29 03:56:22;;;;;;;2.42;0.20;;;;;;;14.34;100.00;100771.06;5055423;28;20044;-47
2023/08/29 03:58:49;;;;;;;1.83;0.75;;;;;;;14.31;100.00;100757.34;5047105;28;20052;-48
2023/08/29 04:01:14;;;;;;;0.57;0.55;;;;;;;14.37;100.00;100743.16;5050183;28;20033;-46
2023/08/29 04:03:40;;;;;;;1.63;0.55;;;;;;;14.42;100.00;100738.00;5052636;28;20029;-48
2023/08/29 04:06:05;;;;;;;0.82;0.20;;;;;;;14.43;100.00;100734.31;5059346;28;20585;-45
2023/08/29 04:08:30;;;;;;;2.35;0.60;;;;;;;14.41;100.00;100731.03;5049213;28;20044;-48
2023/08/29 04:10:55;;;;;;;0.70;0.50;;;;;;;14.37;100.00;100727.94;5052282;28;20056;-46
2023/08/29 04:13:21;;;;;;;2.05;0.52;;;;;;;14.39;100.00;100722.41;5052153;28;20120;-48
2023/08/29 04:15:46;;;;;;;0.70;0.20;;;;;;;14.36;100.00;100736.19;5054366;28;20029;-43
2023/08/29 04:18:11;;;;;;;0.47;0.32;;;;;;;14.36;100.00;100752.19;5053058;28;20032;-46
2023/08/29 04:20:37;;;;;;;1.73;0.40;;;;;;;14.36;100.00;100752.19;5056255;28;20037;-49
2023/08/29 04:23:07;;;;;;;0.50;0.50;;;;;;;14.39;100.00;100757.09;5048445;28;20055;-47
2023/08/29 04:25:38;;;;;;;0.10;0.10;;;;;;;14.33;100.00;100736.59;5051392;28;20029;-48
2023/08/29 04:28:04;;;;;;;0.20;0.13;;;;;;;14.28;100.00;100736.41;5059809;28;20028;-45
2023/08/29 04:30:29;;;;;;;1.95;0.22;;;;;;;14.25;100.00;100739.47;5051097;28;20059;-49
2023/08/29 04:32:56;;;;;;;11.60;0.47;;;;;;;14.21;100.00;100736.41;5054896;28;20040;-46
2023/08/29 04:35:22;;;;;;;1.35;0.47;;;;;;;14.23;100.00;100734.38;5051714;28;20033;-45
2023/08/29 04:37:48;;;;;;;3.20;0.40;;;;;;;14.26;100.00;100733.13;5061716;28;20029;-48
2023/08/29 04:40:16;;;;;;;1.38;0.43;;;;;;;14.37;100.00;100727.94;5057409;28;20028;-49
2023/08/29 04:42:42;;;;;;;0.40;0.22;;;;;;;14.40;100.00;100724.91;5055724;28;20119;-48
2023/08/29 04:45:08;;;;;;;1.42;0.10;;;;;;;14.39;100.00;100730.44;5051380;28;20116;-47
2023/08/29 04:47:34;;;;;;;1.00;0.20;;;;;;;14.42;100.00;100723.84;5053722;28;20028;-45
2023/08/29 04:50:00;;;;;;;4.70;0.28;;;;;;;14.41;100.00;100723.03;5055926;28;20485;-49
2023/08/29 04:52:26;;;;;;;5.25;0.43;;;;;;;14.42;100.00;100724.66;5050221;28;20414;-47
2023/08/29 04:54:52;;;;;;;2.00;0.35;;;;;;;14.39;100.00;100723.22;5056260;28;20083;-47
2023/08/29 04:57:17;;;;;;;1.13;0.20;;;;;;;14.40;100.00;100719.56;5055695;28;20024;-48
2023/08/29 04:59:42;;;;;;;0.40;0.28;;;;;;;14.45;100.00;100723.41;5054490;28;20154;-49
2023/08/29 05:02:08;;;;;;;2.25;0.35;;;;;;;14.38;100.00;100712.78;5056198;28;20109;-49
2023/08/29 05:04:34;;;;;;;0.43;0.20;;;;;;;14.27;100.00;100718.75;5054437;28;20440;-49
2023/08/29 05:06:59;;;;;;;0.98;0.20;;;;;;;14.22;100.00;100714.03;5056280;28;20089;-46
2023/08/29 05:09:24;;;;;;;2.05;0.00;;;;;;;14.15;100.00;100716.75;5051971;28;20426;-50
2023/08/29 05:11:50;;;;;;;4.65;1.38;;;;;;;14.16;100.00;100717.56;5057270;28;20032;-47
2023/08/29 05:14:15;;;;;;;0.50;0.40;;;;;;;14.17;100.00;100714.69;5057814;28;20104;-49
2023/08/29 05:16:40;;;;;;;2.58;0.10;;;;;;;14.17;100.00;100722.69;5056042;28;20136;-46
2023/08/29 05:19:07;;;;;;;0.52;0.20;;;;;;;14.21;100.00;100706.28;5049157;28;20025;-46
2023/08/29 05:21:33;;;;;;;1.48;0.30;;;;;;;14.30;100.00;100710.34;5056089;28;20127;-45
2023/08/29 05:23:58;;;;;;;0.30;0.30;;;;;;;14.30;100.00;100710.34;5056044;28;20508;-45
2023/08/29 05:26:24;;;;;;;0.57;0.10;;;;;;;14.29;100.00;100719.38;5060705;28;20024;-50
2023/08/29 05:28:50;;;;;;;1.75;0.75;;;;;;;14.31;100.00;100723.47;5045994;28;20025;-49
2023/08/29 05:31:15;;;;;;;0.45;0.20;;;;;;;14.32;100.00;100726.94;5053159;28;20047;-44
2023/08/29 05:33:40;;;;;;;1.25;0.00;;;;;;;14.27;100.00;100721.41;5047860;28;20509;-48
2023/08/29 05:36:06;;;;;;;1.83;0.52;;;;;;;14.26;100.00;100719.81;5053158;28;20039;-50
2023/08/29 05:38:31;;;;;;;4.82;0.10;;;;;;;14.27;100.00;100727.56;5052053;28;20884;-46
2023/08/29 05:40:56;;;;;;;1.42;0.60;;;;;;;14.29;100.00;100724.72;5061885;28;20047;-49
2023/08/29 05:43:22;;;;;;;2.83;0.98;;;;;;;14.37;100.00;100724.47;5053249;28;20071;-47
2023/08/29 05:45:47;;;;;;;1.45;0.43;;;;;;;14.43;100.00;100722.81;5052938;28;20103;-49
2023/08/29 05:48:13;;;;;;;1.27;0.10;;;;;;;14.48;100.00;100721.16;5048855;28;20033;-45
2023/08/29 05:50:40;;;;;;;0.32;0.30;;;;;;;14.45;100.00;100728.75;5055400;28;20059;-45
2023/08/29 05:53:05;;;;;;;2.50;0.15;;;;;;;14.45;100.00;100712.75;5045343;28;20029;-48
2023/08/29 05:55:31;;;;;;;0.40;0.10;;;;;;;14.50;100.00;100708.41;5049979;28;20041;-48
2023/08/29 05:57:56;;;;;;;0.45;0.45;;;;;;;14.51;100.00;100709.25;5054399;28;20064;-47
2023/08/29 06:00:21;;;;;;;1.17;0.45;;;;;;;14.57;100.00;100709.25;5057857;28;20458;-45
2023/08/29 06:02:47;;;;;;;1.05;0.25;;;;;;;14.59;100.00;100714.38;5051646;28;20036;-47
2023/08/29 06:05:13;;;;;;;1.13;0.20;;;;;;;14.61;100.00;100718.47;5048452;28;20067;-47
2023/08/29 06:07:38;;;;;;;1.85;0.20;;;;;;;14.63;100.00;100714.78;5049656;28;20040;-45
2023/08/29 06:10:08;;;;;;;3.83;0.08;;;;;;;14.63;100.00;100715.59;5050688;28;20034;-48
2023/08/29 06:12:33;;;;;;;3.00;0.17;;;;;;;14.57;100.00;100721.78;5056402;28;20384;-46
2023/08/29 06:14:59;;;;;;;0.57;0.13;;;;;;;14.57;100.00;100719.91;5066664;28;20039;-48
2023/08/29 06:17:24;;;;;;;0.85;0.20;;;;;;;14.59;100.00;100733.88;5054282;28;20024;-46
2023/08/29 06:19:49;;;;;;;0.45;0.32;;;;;;;14.66;100.00;100719.69;5053632;28;20059;-46
2023/08/29 06:22:14;;;;;;;3.63;0.52;;;;;;;14.73;100.00;100728.47;5046279;28;20045;-49
2023/08/29 06:24:40;;;;;;;3.15;0.20;;;;;;;14.79;100.00;100736.47;5056002;28;20595;-47
2023/08/29 06:27:05;;;;;;;1.67;0.50;;;;;;;14.86;100.00;100736.41;5048447;28;20151;-48
2023/08/29 06:29:31;;;;;;;2.33;0.15;;;;;;;14.87;100.00;100739.91;5052487;28;20053;-48
2023/08/29 06:31:56;;;;;;;0.52;0.20;;;;;;;14.89;100.00;100738.66;5047749;28;20045;-46
2023/08/29 06:34:23;;;;;;;1.48;0.50;;;;;;;14.91;100.00;100723.25;5051822;28;20042;-50
2023/08/29 06:36:48;;;;;;;1.35;0.20;;;;;;;14.89;100.00;100719.97;5050142;28;20037;-47
2023/08/29 06:39:14;;;;;;;0.60;0.17;;;;;;;14.92;100.00;100700.88;5045544;28;20033;-46
2023/08/29 06:41:39;;;;;;;1.85;0.08;;;;;;;14.98;100.00;100708.03;5043417;28;20035;-49
2023/08/29 06:44:05;;;;;;;1.02;0.20;;;;;;;15.07;100.00;100705.09;5048434;28;20037;-49
2023/08/29 06:46:31;;;;;;;0.70;0.47;;;;;;;15.09;100.00;100700.38;5051485;28;20357;-48
2023/08/29 06:48:56;;;;;;;0.63;0.55;;;;;;;15.17;100.00;100702.78;5051946;28;20040;-46
2023/08/29 06:51:21;;;;;;;1.27;0.30;;;;;;;15.19;100.00;100714.88;5050424;28;20021;-45
2023/08/29 06:53:47;;;;;;;0.63;0.30;;;;;;;15.19;100.00;100706.06;5058137;28;20389;-46
2023/08/29 06:56:12;;;;;;;5.18;0.28;;;;;;;15.23;100.00;100709.91;5063323;28;20043;-45
2023/08/29 06:58:38;;;;;;;0.40;0.15;;;;;;;15.26;100.00;100714.84;5062331;28;20086;-45
2023/08/29 07:01:03;;;;;;;0.50;0.20;;;;;;;15.33;100.00;100704.91;5057566;28;20024;-47
2023/08/29 07:03:29;;;;;;;0.65;0.10;;;;;;;15.39;100.00;100701.38;5054317;28;20546;-45
2023/08/29 07:05:54;;;;;;;3.85;0.40;;;;;;;15.43;100.00;100699.91;5053394;28;20446;-48
2023/08/29 07:08:20;;;;;;;2.63;0.25;;;;;;;15.45;100.00;100695.16;5056979;28;20557;-51
2023/08/29 07:10:45;;;;;;;1.42;0.47;;;;;;;15.49;100.00;100692.88;5052482;28;20033;-48
2023/08/29 07:13:11;;;;;;;1.65;0.90;;;;;;;15.55;100.00;100691.19;5054296;28;20036;-47
2023/08/29 07:15:36;;;;;;;1.45;0.30;;;;;;;15.61;100.00;100698.31;5050199;28;20029;-45
2023/08/29 07:18:05;;;;;;;1.15;0.73;;;;;;;15.70;100.00;100694.38;5060605;28;20031;-47
2023/08/29 07:20:30;;;;;;;0.70;0.00;;;;;;;15.74;100.00;100690.22;5058162;28;20036;-49
2023/08/29 07:22:55;;;;;;;2.78;0.40;;;;;;;15.74;100.00;100690.22;5053147;28;20120;-49
2023/08/29 07:25:35;;;;;;;6.03;0.35;;;;;;;15.82;100.00;100679.22;5055436;28;20103;-46
2023/08/29 07:28:00;;;;;;;2.97;0.50;;;;;;;15.84;100.00;100671.81;5057945;28;20032;-46
2023/08/29 07:30:26;;;;;;;0.40;0.38;;;;;;;15.87;100.00;100668.69;5051475;28;20044;-47
2023/08/29 07:32:51;;;;;;;7.93;0.70;;;;;;;15.94;100.00;100665.16;5052558;28;20120;-47
2023/08/29 07:35:17;;;;;;;2.05;0.20;;;;;;;16.00;100.00;100645.53;5050604;28;20029;-46
2023/08/29 07:37:42;;;;;;;0.45;0.10;;;;;;;16.03;100.00;100651.28;5051103;28;20024;-48
2023/08/29 07:40:08;;;;;;;3.60;0.10;;;;;;;16.03;100.00;100647.75;5050926;28;20453;-49
2023/08/29 07:42:34;;;;;;;0.85;0.10;;;;;;;15.95;100.00;100648.06;5051519;28;20093;-47
2023/08/29 07:45:00;;;;;;;0.73;0.20;;;;;;;15.96;100.00;100649.72;5052847;28;20030;-47
2023/08/29 07:47:25;;;;;;;0.63;0.13;;;;;;;15.97;100.00;100649.47;5057038;28;20028;-49
2023/08/29 07:49:50;;;;;;;2.50;0.30;;;;;;;16.00;100.00;100642.84;5055789;28;20557;-47
2023/08/29 07:52:16;;;;;;;0.57;0.17;;;;;;;16.04;100.00;100647.53;5054630;28;20387;-44
2023/08/29 07:54:42;;;;;;;3.20;0.10;;;;;;;16.12;100.00;100649.91;5054086;28;20028;-46
2023/08/29 07:57:07;;;;;;;1.27;0.20;;;;;;;16.27;100.00;100641.53;5060512;28;20028;-45
2023/08/29 07:59:33;;;;;;;1.75;0.50;;;;;;;16.41;100.00;100638.69;5051878;28;20017;-45
2023/08/29 08:01:58;;;;;;;0.57;0.15;;;;;;;16.52;100.00;100635.22;5051926;28;20424;-50
2023/08/29 08:04:24;;;;;;;2.08;0.80;;;;;;;16.58;100.00;100621.75;5052547;28;20567;-47
2023/08/29 08:06:49;;;;;;;1.85;0.40;;;;;;;16.60;100.00;100616.19;5057841;28;20028;-46
2023/08/29 08:09:16;;;;;;;1.75;0.00;;;;;;;16.73;100.00;100621.34;5062398;28;20442;-48
2023/08/29 08:11:41;;;;;;;2.72;0.20;;;;;;;16.83;100.00;100611.97;5058080;28;20041;-45
2023/08/29 08:14:07;;;;;;;0.70;0.10;;;;;;;16.89;100.00;100611.88;5051229;28;20031;-47
2023/08/29 08:16:32;;;;;;;0.75;0.28;;;;;;;16.97;100.00;100598.16;5060276;28;20111;-49
2023/08/29 08:18:57;;;;;;;0.95;0.22;;;;;;;17.20;100.00;100609.94;5056776;28;20954;-47
2023/08/29 08:21:23;;;;;;;2.17;0.30;;;;;;;17.43;100.00;100607.28;5054069;28;20402;-47
2023/08/29 08:23:48;;;;;;;2.15;0.00;;;;;;;17.46;100.00;100613.22;5056730;28;20025;-46
2023/08/29 08:26:14;;;;;;;0.22;0.13;;;;;;;17.50;100.00;100606.34;5057332;28;20033;-45
2023/08/29 08:28:39;;;;;;;1.65;0.30;;;;;;;17.57;100.00;100599.81;5056717;28;20021;-47
2023/08/29 08:31:06;;;;;;;2.08;0.40;;;;;;;17.67;100.00;100601.91;5044923;28;20489;-46
2023/08/29 08:33:32;;;;;;;0.50;0.20;;;;;;;17.77;100.00;100596.75;5057864;28;20089;-46
2023/08/29 08:35:57;;;;;;;0.35;0.08;;;;;;;17.78;100.00;100581.47;5058534;28;20029;-47
2023/08/29 08:38:22;;;;;;;0.30;0.15;;;;;;;17.93;100.00;100584.50;5052078;28;20551;-47
2023/08/29 08:40:48;;;;;;;3.85;0.10;;;;;;;18.08;100.00;100571.41;5052573;28;20305;-49
2023/08/29 08:43:15;;;;;;;0.20;0.03;;;;;;;18.15;100.00;100581.19;5056449;28;20043;-47
2023/08/29 08:45:42;;;;;;;3.65;0.43;;;;;;;18.23;100.00;100575.47;5056981;28;20036;-49
2023/08/29 08:48:08;;;;;;;6.75;1.08;;;;;;;18.36;100.00;100580.53;5057760;28;20493;-47
2023/08/29 08:50:34;;;;;;;0.45;0.17;;;;;;;18.43;100.00;100561.56;5055023;28;20031;-48
2023/08/29 08:53:02;;;;;;;0.30;0.10;;;;;;;18.48;100.00;100564.34;5054959;28;20389;-47
2023/08/29 08:55:31;;;;;;;0.35;0.15;;;;;;;18.48;100.00;100554.44;5049793;28;20127;-50
2023/08/29 08:57:56;;;;;;;0.38;0.35;;;;;;;18.54;100.00;100541.94;5047218;28;20401;-49
2023/08/29 09:00:22;;;;;;;2.65;0.32;;;;;;;18.68;100.00;100534.38;5051271;28;20036;-49
2023/08/29 09:02:47;;;;;;;0.95;0.17;;;;;;;18.69;100.00;100533.28;5052447;28;20177;-51
2023/08/29 09:05:13;;;;;;;1.95;0.13;;;;;;;18.84;100.00;100536.25;5049428;28;20025;-47
2023/08/29 09:07:39;;;;;;;1.80;0.30;;;;;;;18.77;100.00;100526.75;5045253;28;20124;-47
2023/08/29 09:10:09;;;;;;;0.20;0.05;;;;;;;18.85;100.00;100523.66;5054452;28;20135;-48
2023/08/29 09:12:35;;;;;;;0.55;0.15;;;;;;;18.90;100.00;100519.19;5051408;28;20617;-47
2023/08/29 09:15:04;;;;;;;0.93;0.38;;;;;;;18.93;100.00;100505.25;5043670;28;20036;-48
2023/08/29 09:17:30;;;;;;;0.08;0.00;;;;;;;19.08;100.00;100507.38;5054956;28;20032;-46
2023/08/29 09:19:59;;;;;;;1.20;0.77;;;;;;;19.15;100.00;100501.78;5049169;28;20499;-49
2023/08/29 09:22:25;;;;;;;0.45;0.00;;;;;;;19.29;100.00;100503.09;5053230;28;20888;-46
2023/08/29 09:24:50;;;;;;;1.02;0.65;;;;;;;19.43;100.00;100506.22;5051406;28;20033;-49
2023/08/29 09:27:15;;;;;;;1.88;0.08;;;;;;;19.55;100.00;100506.13;5048477;28;20132;-47
2023/08/29 09:29:41;;;;;;;0.38;0.00;;;;;;;19.75;100.00;100509.09;5055762;28;20039;-51
2023/08/29 09:32:13;;;;;;;1.45;0.05;;;;;;;19.84;100.00;100501.38;5047383;28;20172;-47
2023/08/29 09:34:39;;;;;;;0.47;0.03;;;;;;;19.91;100.00;100498.50;5050088;28;20033;-47
2023/08/29 09:37:05;;;;;;;2.38;1.00;;;;;;;19.79;100.00;100499.44;5043741;28;20925;-50
2023/08/29 09:39:31;;;;;;;0.30;0.22;;;;;;;19.64;100.00;100490.34;5048673;28;20111;-50
2023/08/29 09:42:04;;;;;;;0.77;0.00;;;;;;;19.72;100.00;100495.31;5050374;28;20040;-51
2023/08/29 09:44:37;;;;;;;0.20;0.10;;;;;;;19.73;100.00;100494.25;5051410;28;20504;-51
2023/08/29 09:47:08;;;;;;;0.40;0.13;;;;;;;19.86;100.00;100493.06;5048687;28;20121;-47
2023/08/29 09:49:43;;;;;;;1.08;0.20;;;;;;;20.10;100.00;100497.06;5048570;28;20202;-48
2023/08/29 09:52:09;;;;;;;0.55;0.00;;;;;;;20.18;100.00;100493.91;5049960;28;20035;-48
2023/08/29 09:54:39;;;;;;;3.58;0.22;;;;;;;20.06;100.00;100490.59;5050597;28;20028;-51
2023/08/29 09:57:07;;;;;;;0.73;0.08;;;;;;;20.08;100.00;100493.81;5047202;28;20029;-49
2023/08/29 09:59:34;;;;;;;0.45;0.40;;;;;;;20.25;100.00;100488.34;5038534;28;20033;-47
2023/08/29 10:02:01;;;;;;;1.02;0.08;;;;;;;20.21;100.00;100479.97;5039616;28;20086;-50
2023/08/29 10:04:29;;;;;;;1.33;0.20;;;;;;;20.26;100.00;100476.50;5053990;28;20362;-46
2023/08/29 10:06:57;;;;;;;0.10;0.10;;;;;;;20.36;100.00;100475.78;5051115;28;20287;-49
2023/08/29 10:09:25;;;;;;;5.47;1.05;;;;;;;20.39;100.00;100476.06;5047521;28;20435;-51
2023/08/29 10:11:52;;;;;;;1.70;0.30;;;;;;;20.61;100.00;100472.53;5045429;28;20065;-48
2023/08/29 10:14:18;;;;;;;1.25;0.30;;;;;;;20.61;100.00;100473.31;5047411;28;20733;-46
2023/08/29 10:16:45;;;;;;;1.83;0.20;;;;;;;20.81;100.00;100464.59;5048579;28;20349;-48
2023/08/29 10:19:13;;;;;;;1.98;0.03;;;;;;;21.00;100.00;100464.97;5049920;28;20507;-49
2023/08/29 10:21:41;;;;;;;0.40;0.00;;;;;;;20.96;100.00;100461.19;5051469;28;20110;-50
2023/08/29 10:24:07;;;;;;;0.52;0.30;;;;;;;21.01;100.00;100469.28;5049139;28;20381;-51
2023/08/29 10:26:34;;;;;;;0.20;0.20;;;;;;;21.05;100.00;100461.50;5051916;28;20493;-49
2023/08/29 10:29:00;;;;;;;0.00;0.00;;;;;;;21.21;100.00;100459.69;5051733;28;20052;-48
2023/08/29 10:31:26;;;;;;;0.35;0.30;;;;;;;21.41;100.00;100457.13;5051862;28;20045;-46
2023/08/29 10:33:55;;;;;;;0.57;0.28;;;;;;;21.50;100.00;100444.75;5049369;28;20384;-47
2023/08/29 10:36:20;;;;;;;0.35;0.20;;;;;;;21.63;100.00;100442.63;5050896;28;20048;-51
2023/08/29 10:38:49;;;;;;;0.43;0.32;;;;;;;21.65;100.00;100438.56;5050954;28;20124;-48
2023/08/29 10:41:14;;;;;;;0.32;0.25;;;;;;;21.54;100.00;100437.75;5051927;28;20899;-48
2023/08/29 10:43:40;;;;;;;0.43;0.20;;;;;;;21.47;100.00;100436.38;5048581;28;20040;-51
2023/08/29 10:46:11;;;;;;;1.38;0.20;;;;;;;21.75;100.00;100435.09;5054227;28;20531;-49
2023/08/29 10:48:46;;;;;;;0.38;0.10;;;;;;;21.70;100.00;100437.78;5052143;28;20483;-49
2023/08/29 10:51:15;;;;;;;0.35;0.25;;;;;;;21.91;100.00;100439.44;5050935;28;20040;-49
2023/08/29 10:53:52;;;;;;;3.75;0.20;;;;;;;22.04;99.49;100440.00;5050699;28;20028;-47
2023/08/29 10:56:23;;;;;;;0.13;0.08;;;;;;;22.02;97.63;100439.47;5051264;28;20036;-50
2023/08/29 10:58:48;;;;;;;0.20;0.20;;;;;;;22.00;94.08;100432.47;5050471;28;20075;-47
2023/08/29 11:01:30;;;;;;;0.38;0.10;;;;;;;22.27;99.56;100434.13;5051528;28;20461;-48
2023/08/29 11:03:57;;;;;;;0.47;0.15;;;;;;;22.49;94.26;100424.94;5046829;28;20052;-51
2023/08/29 11:06:24;;;;;;;2.72;0.63;;;;;;;22.69;98.29;100419.50;5050212;28;20024;-49
2023/08/29 11:08:50;;;;;;;0.15;0.10;;;;;;;22.80;97.25;100426.50;5049444;28;20127;-50
2023/08/29 11:11:19;;;;;;;0.57;0.22;;;;;;;22.65;89.94;100429.25;5050943;28;20038;-48
2023/08/29 11:14:06;;;;;;;0.30;0.30;;;;;;;22.61;89.01;100414.63;5047766;28;20076;-55